Time;durP1;ratioP1;P1;durP2;ratioP2;P2;SDS_P1;SDS_P2;PMS_P1;PMS_P2;Temp;Humidity;BMP_temperature;BMP_pressure;BME280_temperature;BME280_humidity;BME280_pressure;Samples;Min_cycle;Max_cycle;Signal;HPM_P1;HPM_P2
2022/11/04 00:01:52;;;;;;;12.23;9.33;;;8.70;99.90;;;;;;6192083;23;20381;-88
2022/11/04 00:04:21;;;;;;;15.93;9.90;;;8.80;99.90;;;;;;6192423;23;20948;-88
2022/11/04 00:06:49;;;;;;;24.60;10.00;;;8.80;99.90;;;;;;6192775;23;20470;-88
2022/11/04 00:09:19;;;;;;;13.60;11.50;;;8.80;99.90;;;;;;6192169;23;20415;-87
2022/11/04 00:14:31;;;;;;;14.40;11.10;;;9.30;99.90;;;;;;6199238;23;20507;-87
2022/11/04 00:30:48;;;;;;;40.00;19.33;;;9.00;99.90;;;;;;6193934;23;20401;-88
2022/11/04 00:33:26;;;;;;;15.40;10.70;;;9.00;99.90;;;;;;6193196;23;20415;-86
2022/11/04 00:35:54;;;;;;;12.47;9.37;;;9.00;99.90;;;;;;6193164;23;20415;-86
2022/11/04 00:38:23;;;;;;;10.13;8.20;;;8.90;99.90;;;;;;6199031;23;20407;-87
2022/11/04 00:40:50;;;;;;;13.90;10.83;;;8.90;99.90;;;;;;6197130;23;20400;-88
2022/11/04 00:43:17;;;;;;;13.13;9.67;;;;;;;;;;6195731;23;20411;-88
2022/11/04 00:45:44;;;;;;;15.87;10.97;;;9.10;99.90;;;;;;6195192;23;20451;-88
2022/11/04 00:48:11;;;;;;;14.10;10.13;;;8.90;99.90;;;;;;6193455;23;20413;-87
2022/11/04 00:50:38;;;;;;;15.17;9.70;;;9.20;99.90;;;;;;6192260;23;20500;-88
2022/11/04 00:53:05;;;;;;;13.30;8.90;;;9.20;99.90;;;;;;6191908;23;20411;-87
2022/11/04 00:55:33;;;;;;;11.20;9.13;;;9.10;99.90;;;;;;6191973;23;20406;-87
2022/11/04 00:57:59;;;;;;;13.07;9.07;;;8.60;99.90;;;;;;6206755;23;20399;-87
2022/11/04 01:00:26;;;;;;;13.50;10.17;;;9.00;99.90;;;;;;6209645;23;20386;-87
2022/11/04 01:02:53;;;;;;;17.13;9.63;;;8.50;99.90;;;;;;6211439;23;20387;-87
2022/11/04 01:05:20;;;;;;;11.63;9.30;;;8.40;99.90;;;;;;6206351;23;20398;-87
2022/11/04 01:07:47;;;;;;;11.70;9.07;;;8.90;99.90;;;;;;6211021;23;20403;-87
2022/11/04 01:10:13;;;;;;;12.37;10.03;;;9.10;99.90;;;;;;6212928;23;20451;-88
2022/11/04 01:12:42;;;;;;;19.60;11.60;;;9.20;99.90;;;;;;6214307;23;20378;-87
2022/11/04 01:15:09;;;;;;;12.03;9.07;;;9.10;99.90;;;;;;6209935;23;20439;-87
2022/11/04 01:17:36;;;;;;;18.97;10.70;;;8.80;99.90;;;;;;6209755;23;20415;-86
2022/11/04 01:20:03;;;;;;;13.60;9.13;;;8.40;99.90;;;;;;6205660;23;20399;-88
2022/11/04 01:22:30;;;;;;;18.43;11.87;;;8.90;99.90;;;;;;6193045;23;20411;-87
2022/11/04 01:24:57;;;;;;;13.30;9.73;;;9.10;99.90;;;;;;6193059;23;20902;-86
2022/11/04 01:27:23;;;;;;;12.77;10.23;;;9.10;99.90;;;;;;6196448;23;20748;-87
2022/11/04 01:29:51;;;;;;;13.97;9.23;;;9.10;99.90;;;;;;6190282;23;20414;-87
2022/11/04 01:32:18;;;;;;;15.07;11.00;;;9.00;99.90;;;;;;6190743;23;20462;-87
2022/11/04 01:34:46;;;;;;;16.90;9.37;;;8.60;99.90;;;;;;6192823;23;20482;-86
2022/11/04 01:37:13;;;;;;;10.73;9.43;;;8.80;99.90;;;;;;6192911;23;20419;-87
2022/11/04 01:39:39;;;;;;;12.53;9.60;;;8.50;99.90;;;;;;6190172;23;20407;-87
2022/11/04 01:42:06;;;;;;;15.60;9.60;;;8.50;99.90;;;;;;6192007;23;20768;-86
2022/11/04 01:44:48;;;;;;;16.40;10.37;;;8.80;99.90;;;;;;6193852;23;20444;-87
2022/11/04 01:47:19;;;;;;;17.73;11.37;;;8.60;99.90;;;;;;6210116;23;20392;-87
2022/11/04 01:49:50;;;;;;;15.67;10.80;;;9.00;99.90;;;;;;6202468;23;20391;-87
2022/11/04 01:52:21;;;;;;;14.90;10.77;;;8.40;99.90;;;;;;6193939;23;20388;-87
2022/11/04 01:54:50;;;;;;;15.20;9.60;;;8.90;99.90;;;;;;6195376;23;20402;-86
2022/11/04 01:57:21;;;;;;;13.43;9.33;;;8.50;99.90;;;;;;6192729;23;20430;-87
2022/11/04 01:59:48;;;;;;;11.73;9.13;;;8.20;99.90;;;;;;6192852;23;20374;-86
2022/11/04 02:02:14;;;;;;;12.47;9.67;;;8.80;99.90;;;;;;6192856;23;20424;-88
2022/11/04 02:04:43;;;;;;;20.63;10.90;;;8.30;99.90;;;;;;6203765;23;20430;-88
2022/11/04 02:07:12;;;;;;;13.20;10.77;;;7.70;99.90;;;;;;6213991;23;20437;-89
2022/11/04 02:09:41;;;;;;;13.90;9.90;;;8.90;99.90;;;;;;6214063;23;20447;-89
2022/11/04 02:14:53;;;;;;;11.57;9.47;;;8.40;99.90;;;;;;6203703;23;20445;-88
2022/11/04 02:17:34;;;;;;;11.53;10.10;;;8.30;99.90;;;;;;6200128;23;20403;-87
2022/11/04 02:20:27;;;;;;;16.47;10.83;;;8.20;99.90;;;;;;6197279;23;20464;-87
2022/11/04 02:23:30;;;;;;;15.97;10.20;;;8.50;99.90;;;;;;6187744;23;20414;-87
2022/11/04 02:26:31;;;;;;;17.60;9.43;;;8.70;99.90;;;;;;6193260;23;20441;-88
2022/11/04 02:29:33;;;;;;;16.13;11.00;;;8.80;99.90;;;;;;6190788;23;20390;-87
2022/11/04 02:32:09;;;;;;;13.60;10.17;;;8.60;99.90;;;;;;6191220;23;20715;-87
2022/11/04 02:34:44;;;;;;;20.07;10.20;;;8.30;99.90;;;;;;6190487;23;20413;-87
2022/11/04 02:37:19;;;;;;;18.10;10.30;;;8.80;99.90;;;;;;6196585;23;20386;-87
2022/11/04 02:39:52;;;;;;;14.60;11.23;;;8.60;99.90;;;;;;6207760;23;20907;-87
2022/11/04 02:42:27;;;;;;;15.33;10.30;;;8.20;99.90;;;;;;6198988;23;20391;-87
2022/11/04 02:45:10;;;;;;;19.03;11.10;;;8.70;99.90;;;;;;6190511;23;20438;-87
2022/11/04 02:47:42;;;;;;;14.20;10.70;;;8.60;99.90;;;;;;6189961;23;20387;-88
2022/11/04 02:50:14;;;;;;;11.93;9.65;;;9.10;99.90;;;;;;6189629;23;20386;-88
2022/11/04 02:52:48;;;;;;;20.33;11.05;;;8.80;99.90;;;;;;6189854;23;20191;-88
2022/11/04 02:55:21;;;;;;;17.67;10.93;;;8.90;99.90;;;;;;6191007;23;20199;-87
2022/11/04 02:57:52;;;;;;;14.53;10.60;;;8.50;99.90;;;;;;6189778;23;20674;-88
2022/11/04 03:00:20;;;;;;;15.47;10.40;;;8.10;99.90;;;;;;6190367;23;20375;-88
2022/11/04 03:02:53;;;;;;;19.10;11.20;;;9.30;99.90;;;;;;6203155;23;20407;-87
2022/11/04 03:05:25;;;;;;;16.67;10.93;;;8.50;99.90;;;;;;6210680;23;20433;-88
2022/11/04 03:07:55;;;;;;;16.43;10.57;;;8.80;99.90;;;;;;6192233;23;20433;-88
2022/11/04 03:10:26;;;;;;;15.93;10.30;;;8.20;99.90;;;;;;6190845;23;20395;-87
2022/11/04 03:12:58;;;;;;;15.73;10.97;;;8.30;99.90;;;;;;6190560;23;20387;-89
2022/11/04 03:15:29;;;;;;;18.15;10.95;;;8.70;99.90;;;;;;6189601;23;20719;-87
2022/11/04 03:18:03;;;;;;;12.65;10.43;;;8.80;99.90;;;;;;6193012;23;20199;-87
2022/11/04 03:20:32;;;;;;;15.88;10.60;;;8.30;99.90;;;;;;6191710;23;20173;-87
2022/11/04 03:22:59;;;;;;;17.13;10.43;;;8.50;99.90;;;;;;6192011;23;20180;-87
2022/11/04 03:25:30;;;;;;;14.57;10.60;;;8.50;99.90;;;;;;6191374;23;20406;-86
2022/11/04 03:28:04;;;;;;;15.23;10.53;;;8.50;99.90;;;;;;6192901;23;20478;-87
2022/11/04 03:30:39;;;;;;;14.57;10.90;;;8.50;99.90;;;;;;6192905;23;20703;-87
2022/11/04 03:33:12;;;;;;;13.40;10.37;;;9.00;99.90;;;;;;6190079;23;20939;-87
2022/11/04 03:35:39;;;;;;;17.73;9.93;;;8.60;99.90;;;;;;6189902;23;20398;-88
2022/11/04 03:38:06;;;;;;;17.90;10.37;;;9.10;99.90;;;;;;6190498;23;20425;-87
2022/11/04 03:40:33;;;;;;;16.07;10.60;;;8.30;99.90;;;;;;6189883;23;20378;-87
2022/11/04 03:43:04;;;;;;;12.00;10.50;;;8.50;99.90;;;;;;6191515;23;20427;-87
2022/11/04 03:45:32;;;;;;;16.53;11.50;;;8.70;99.90;;;;;;6191075;23;20431;-87
2022/11/04 03:48:00;;;;;;;14.90;9.93;;;8.70;99.90;;;;;;6191426;23;20378;-87
2022/11/04 03:50:29;;;;;;;17.83;11.43;;;8.40;99.90;;;;;;6191270;23;20718;-88
2022/11/04 03:52:56;;;;;;;15.95;11.02;;;8.70;99.90;;;;;;6191167;23;20389;-86
2022/11/04 03:55:30;;;;;;;13.50;9.67;;;8.60;99.90;;;;;;6190482;23;20231;-87
2022/11/04 03:58:04;;;;;;;17.60;11.37;;;8.80;99.90;;;;;;6191229;23;20374;-88
2022/11/04 04:00:41;;;;;;;14.43;10.60;;;8.80;99.90;;;;;;6190510;23;20487;-87
2022/11/04 04:03:13;;;;;;;12.80;10.53;;;8.70;99.90;;;;;;6191042;23;20369;-88
2022/11/04 04:05:48;;;;;;;16.40;11.27;;;9.00;99.90;;;;;;6209541;23;20435;-87
2022/11/04 04:08:22;;;;;;;15.57;11.17;;;9.00;99.90;;;;;;6200142;23;20362;-87
2022/11/04 04:10:58;;;;;;;13.60;10.00;;;8.60;99.90;;;;;;6199333;23;20373;-87
2022/11/04 04:13:35;;;;;;;19.60;10.80;;;8.50;99.90;;;;;;6194771;23;20394;-87
2022/11/04 04:16:08;;;;;;;16.23;10.87;;;8.80;99.90;;;;;;6193997;23;20947;-87
2022/11/04 04:18:40;;;;;;;16.27;10.13;;;8.70;99.90;;;;;;6194406;23;20392;-87
2022/11/04 04:21:11;;;;;;;13.40;10.60;;;8.50;99.90;;;;;;6194287;23;20387;-88
2022/11/04 04:29:11;;;;;;;12.10;10.80;;;8.60;99.90;;;;;;6169223;23;20390;-89
2022/11/04 04:31:49;;;;;;;14.23;9.87;;;8.20;99.90;;;;;;6214803;23;20426;-89
2022/11/04 04:34:17;;;;;;;14.60;11.80;;;9.10;99.90;;;;;;6209009;23;20475;-87
2022/11/04 04:36:48;;;;;;;20.33;11.33;;;8.90;99.90;;;;;;6190832;23;20462;-87
2022/11/04 04:45:04;;;;;;;18.60;11.57;;;9.30;99.90;;;;;;6202735;23;20423;-88
2022/11/04 04:47:37;;;;;;;15.37;11.67;;;8.90;99.90;;;;;;6211856;23;20431;-87
2022/11/04 04:50:05;;;;;;;20.87;11.90;;;9.70;99.90;;;;;;6212234;23;20422;-87
2022/11/04 04:52:36;;;;;;;22.15;11.75;;;8.90;99.90;;;;;;6208690;23;20403;-87
2022/11/04 04:55:03;;;;;;;14.77;11.03;;;8.90;99.90;;;;;;6212462;23;20196;-87
2022/11/04 04:57:29;;;;;;;17.23;11.03;;;9.20;99.90;;;;;;6199153;23;20414;-87
2022/11/04 04:59:56;;;;;;;19.80;11.20;;;;;;;;;;6192034;23;20407;-87
2022/11/04 05:02:23;;;;;;;21.10;12.40;;;8.60;99.90;;;;;;6190374;23;20448;-87
2022/11/04 05:04:51;;;;;;;17.97;11.73;;;8.80;99.90;;;;;;6192078;23;20510;-87
2022/11/04 05:07:18;;;;;;;15.20;11.07;;;9.00;99.90;;;;;;6192885;23;20744;-87
2022/11/04 05:09:45;;;;;;;16.00;10.40;;;7.80;99.90;;;;;;6193187;23;20407;-87
2022/11/04 05:12:11;;;;;;;16.17;11.63;;;9.10;99.90;;;;;;6194231;23;20418;-87
2022/11/04 05:14:38;;;;;;;22.33;12.67;;;9.00;99.90;;;;;;6200029;23;20433;-87
2022/11/04 05:17:05;;;;;;;16.00;11.77;;;9.10;99.90;;;;;;6208502;23;20441;-88
2022/11/04 05:19:32;;;;;;;13.03;11.60;;;9.10;99.90;;;;;;6206815;23;20435;-87
2022/11/04 05:22:00;;;;;;;16.00;10.43;;;9.20;99.90;;;;;;6209048;23;20406;-87
2022/11/04 05:24:26;;;;;;;22.17;12.93;;;9.10;99.90;;;;;;6210777;23;20405;-87
2022/11/04 05:26:53;;;;;;;16.70;12.03;;;9.10;99.90;;;;;;6190310;23;20469;-87
2022/11/04 05:29:20;;;;;;;17.10;11.73;;;9.00;99.90;;;;;;6195331;23;20415;-87
2022/11/04 05:31:46;;;;;;;13.30;10.90;;;9.00;99.90;;;;;;6212983;23;20605;-87
2022/11/04 05:34:14;;;;;;;15.67;11.20;;;9.40;99.90;;;;;;6213420;23;20387;-88
2022/11/04 05:36:40;;;;;;;12.97;11.20;;;8.80;99.90;;;;;;6206093;23;20407;-87
2022/11/04 05:39:12;;;;;;;13.33;10.97;;;9.10;99.90;;;;;;6191325;23;20485;-87
2022/11/04 05:41:39;;;;;;;34.90;11.90;;;9.10;99.90;;;;;;6188821;23;20844;-88
2022/11/04 05:44:08;;;;;;;15.67;10.90;;;9.50;99.90;;;;;;6189068;23;20381;-88
2022/11/04 05:46:35;;;;;;;19.63;11.67;;;9.00;99.90;;;;;;6190565;23;20425;-87
2022/11/04 05:49:01;;;;;;;22.97;12.60;;;9.10;99.90;;;;;;6190192;23;20403;-87
2022/11/04 05:51:29;;;;;;;16.47;11.10;;;9.30;99.90;;;;;;6190008;23;20424;-87
2022/11/04 05:53:56;;;;;;;16.77;11.50;;;9.00;99.90;;;;;;6189452;23;20382;-87
2022/11/04 05:56:24;;;;;;;16.77;12.13;;;9.90;99.90;;;;;;6189428;23;20400;-87
2022/11/04 05:58:51;;;;;;;17.27;11.93;;;9.60;99.90;;;;;;6200834;23;20175;-87
2022/11/04 06:01:27;;;;;;;19.13;11.40;;;8.90;99.90;;;;;;6205224;23;20411;-87
2022/11/04 06:03:55;;;;;;;16.93;11.93;;;9.10;99.90;;;;;;6204037;23;20393;-87
2022/11/04 06:06:22;;;;;;;16.27;11.30;;;9.20;99.90;;;;;;6203683;23;20451;-87
2022/11/04 06:08:49;;;;;;;16.40;11.17;;;8.90;99.90;;;;;;6195023;23;20754;-87
2022/11/04 06:11:17;;;;;;;13.43;12.03;;;9.00;99.90;;;;;;6189186;23;20412;-87
2022/11/04 06:13:45;;;;;;;15.67;11.30;;;8.80;99.90;;;;;;6189782;23;20391;-87
2022/11/04 06:16:12;;;;;;;20.77;10.90;;;9.50;99.90;;;;;;6187124;23;20967;-87
2022/11/04 06:18:38;;;;;;;15.20;12.27;;;9.10;99.90;;;;;;6189464;23;20407;-87
2022/11/04 06:21:18;;;;;;;18.30;12.63;;;9.20;99.90;;;;;;6189365;23;20501;-87
2022/11/04 06:23:45;;;;;;;13.20;10.70;;;9.30;99.90;;;;;;6196674;23;20392;-87
2022/11/04 06:26:13;;;;;;;16.57;11.77;;;9.20;99.90;;;;;;6206560;23;20438;-88
2022/11/04 06:28:40;;;;;;;18.80;13.17;;;9.60;99.90;;;;;;6213904;23;20403;-88
2022/11/04 06:31:10;;;;;;;18.93;12.43;;;9.60;99.90;;;;;;6213899;23;20377;-87
2022/11/04 06:33:37;;;;;;;16.10;12.10;;;9.10;99.90;;;;;;6207247;23;20363;-87
2022/11/04 06:36:06;;;;;;;15.97;12.87;;;9.40;99.90;;;;;;6189252;23;20427;-88
2022/11/04 06:38:37;;;;;;;14.67;12.60;;;9.10;99.90;;;;;;6189203;23;20407;-87
2022/11/04 06:41:04;;;;;;;19.00;11.67;;;9.60;99.90;;;;;;6187464;23;20433;-88
2022/11/04 06:43:31;;;;;;;16.27;12.17;;;9.10;99.90;;;;;;6188189;23;20406;-88
2022/11/04 06:46:00;;;;;;;17.47;12.13;;;9.30;99.90;;;;;;6188089;23;20402;-87
2022/11/04 06:48:29;;;;;;;20.27;12.80;;;9.50;99.90;;;;;;6188891;23;20419;-87
2022/11/04 06:50:57;;;;;;;19.20;14.17;;;9.50;99.90;;;;;;6188978;23;20457;-87
2022/11/04 06:53:23;;;;;;;23.00;14.13;;;9.70;99.90;;;;;;6193403;23;20450;-87
2022/11/04 06:55:51;;;;;;;20.87;14.50;;;10.00;99.90;;;;;;6190978;23;20510;-87
2022/11/04 06:58:18;;;;;;;19.23;12.40;;;9.80;99.90;;;;;;6190295;23;20415;-88
2022/11/04 07:00:51;;;;;;;20.27;12.60;;;10.40;99.90;;;;;;6189577;23;20411;-87
2022/11/04 07:03:17;;;;;;;16.50;12.20;;;10.10;99.90;;;;;;6189584;23;20369;-88
2022/11/04 07:05:46;;;;;;;16.67;12.17;;;9.80;99.90;;;;;;6192222;23;20418;-88
2022/11/04 07:08:13;;;;;;;16.30;12.30;;;9.80;99.90;;;;;;6195515;23;20408;-87
2022/11/04 07:10:40;;;;;;;15.30;13.33;;;9.80;99.90;;;;;;6194391;23;20441;-88
2022/11/04 07:13:07;;;;;;;16.40;13.43;;;;;;;;;;6192687;23;20417;-87
2022/11/04 07:15:34;;;;;;;28.70;16.20;;;9.80;99.90;;;;;;6189403;23;20478;-87
2022/11/04 07:18:01;;;;;;;28.10;20.13;;;10.00;99.90;;;;;;6192233;23;20755;-88
2022/11/04 07:20:28;;;;;;;37.10;20.80;;;9.80;99.90;;;;;;6195642;23;20386;-88
2022/11/04 07:22:56;;;;;;;71.33;39.20;;;9.80;99.90;;;;;;6194725;23;20413;-88
2022/11/04 07:25:22;;;;;;;35.13;22.00;;;9.50;99.90;;;;;;6190503;23;20406;-88
2022/11/04 07:27:49;;;;;;;37.77;25.90;;;9.50;99.90;;;;;;6189263;23;20728;-88
2022/11/04 07:30:18;;;;;;;30.00;19.20;;;10.20;99.90;;;;;;6190388;23;20415;-87
2022/11/04 07:32:44;;;;;;;36.80;24.53;;;9.80;99.90;;;;;;6189687;23;20422;-88
2022/11/04 07:35:11;;;;;;;32.30;22.33;;;;;;;;;;6190024;23;20409;-88
2022/11/04 07:37:38;;;;;;;35.43;21.10;;;9.60;99.90;;;;;;6189610;23;20393;-88
2022/11/04 07:40:08;;;;;;;28.10;19.20;;;9.90;99.90;;;;;;6190029;23;20747;-88
2022/11/04 07:42:35;;;;;;;28.97;22.20;;;9.90;99.90;;;;;;6189399;23;20408;-88
2022/11/04 07:45:01;;;;;;;26.70;18.37;;;10.30;99.90;;;;;;6189501;23;20409;-88
2022/11/04 07:47:29;;;;;;;27.00;20.10;;;10.40;99.90;;;;;;6197268;23;20412;-88
2022/11/04 07:49:56;;;;;;;25.67;17.60;;;10.00;99.90;;;;;;6197945;23;20430;-88
2022/11/04 07:52:23;;;;;;;23.60;18.37;;;10.10;99.90;;;;;;6192271;23;20439;-88
2022/11/04 07:54:50;;;;;;;24.10;17.47;;;10.10;99.90;;;;;;6193997;23;20458;-88
2022/11/04 07:57:18;;;;;;;25.10;15.37;;;9.90;99.90;;;;;;6190330;23;20446;-87
2022/11/04 07:59:45;;;;;;;20.67;17.33;;;10.30;99.90;;;;;;6189575;23;20459;-87
2022/11/04 08:02:12;;;;;;;20.77;16.63;;;10.40;99.90;;;;;;6191174;23;20473;-87
2022/11/04 08:04:38;;;;;;;21.17;16.17;;;10.50;99.90;;;;;;6190219;23;20435;-87
2022/11/04 08:07:08;;;;;;;22.03;17.10;;;10.70;99.90;;;;;;6190333;23;20411;-87
2022/11/04 08:09:36;;;;;;;24.03;16.83;;;10.40;99.90;;;;;;6190686;23;20389;-86
2022/11/04 08:12:03;;;;;;;22.50;16.07;;;10.40;99.90;;;;;;6192868;23;20446;-84
2022/11/04 08:14:31;;;;;;;28.83;16.10;;;10.40;99.90;;;;;;6190565;23;20763;-84
2022/11/04 08:17:00;;;;;;;24.80;15.43;;;10.50;99.90;;;;;;6191378;23;20407;-85
2022/11/04 08:19:30;;;;;;;21.97;14.17;;;10.80;99.90;;;;;;6191289;23;20441;-86
2022/11/04 08:22:00;;;;;;;18.17;14.83;;;10.50;99.90;;;;;;6191875;23;20415;-85
2022/11/04 08:37:35;;;;;;;20.50;15.90;;;;;;;;;;5968171;23;20495;-90
2022/11/04 08:40:02;;;;;;;19.40;14.80;;;;;;;;;;6178066;23;20391;-89
2022/11/04 08:42:29;;;;;;;22.10;14.87;;;;;;;;;;6182816;23;20375;-90
2022/11/04 08:44:56;;;;;;;20.13;13.93;;;;;;;;;;6179597;23;20428;-89
2022/11/04 08:47:23;;;;;;;22.97;13.80;;;;;;;;;;6165966;23;20417;-91
2022/11/04 08:49:50;;;;;;;18.57;13.70;;;;;;;;;;6164405;23;20393;-90
2022/11/04 08:52:17;;;;;;;17.10;13.87;;;10.90;99.90;;;;;;6168043;23;20444;-90
2022/11/04 08:54:45;;;;;;;18.90;14.83;;;11.00;99.90;;;;;;6171845;23;20408;-90
2022/11/04 08:57:12;;;;;;;19.03;14.50;;;;;;;;;;6176097;23;20412;-91
2022/11/04 08:59:39;;;;;;;18.17;13.37;;;11.00;99.90;;;;;;6168524;23;20412;-89
2022/11/04 09:02:06;;;;;;;18.80;13.20;;;;;;;;;;6166198;23;20421;-89
2022/11/04 09:04:34;;;;;;;15.60;11.73;;;11.00;99.90;;;;;;6166297;23;20383;-90
2022/11/04 09:07:04;;;;;;;17.57;12.03;;;11.20;99.90;;;;;;6165150;23;20700;-91
2022/11/04 09:09:31;;;;;;;12.60;10.73;;;;;;;;;;6168510;23;20355;-91
2022/11/04 09:11:59;;;;;;;13.47;10.90;;;11.50;99.90;;;;;;6167575;23;20375;-89
2022/11/04 09:14:26;;;;;;;11.37;9.80;;;11.00;99.90;;;;;;6165868;23;20476;-90
2022/11/04 09:16:53;;;;;;;12.70;10.53;;;11.10;99.90;;;;;;6184360;23;20503;-88
2022/11/04 09:19:20;;;;;;;13.97;9.70;;;11.30;99.90;;;;;;6184429;23;20371;-89
2022/11/04 09:21:47;;;;;;;10.50;8.40;;;11.30;99.90;;;;;;6184666;23;20388;-88
2022/11/04 09:24:13;;;;;;;12.33;9.47;;;11.20;99.90;;;;;;6171080;23;20383;-90
2022/11/04 09:26:41;;;;;;;11.33;9.83;;;;;;;;;;6166116;23;20432;-90
2022/11/04 09:29:09;;;;;;;10.90;8.47;;;11.60;99.90;;;;;;6166116;23;20432;-90
2022/11/04 09:31:36;;;;;;;12.57;8.70;;;11.40;99.90;;;;;;6162275;23;20414;-90
2022/11/04 09:34:03;;;;;;;11.43;8.57;;;;;;;;;;6164537;23;20495;-90
2022/11/04 09:36:30;;;;;;;9.30;8.20;;;;;;;;;;6165879;23;20471;-89
2022/11/04 09:38:57;;;;;;;11.00;7.63;;;11.40;99.90;;;;;;6165197;23;20443;-89
2022/11/04 09:41:42;;;;;;;8.73;7.53;;;11.10;99.90;;;;;;6166248;23;20383;-89
2022/11/04 09:44:21;;;;;;;10.43;7.13;;;11.50;99.90;;;;;;6168393;23;20393;-88
2022/11/04 09:46:49;;;;;;;11.20;9.10;;;11.60;99.90;;;;;;6164156;23;20398;-89
2022/11/04 09:49:17;;;;;;;11.77;8.70;;;;;;;;;;6160972;23;20415;-89
2022/11/04 09:51:47;;;;;;;9.43;7.33;;;11.90;99.90;;;;;;6163201;23;20408;-89
2022/11/04 09:54:20;;;;;;;8.83;7.10;;;11.80;99.90;;;;;;6160434;23;20458;-90
2022/11/04 09:56:50;;;;;;;8.47;7.40;;;11.80;99.90;;;;;;6165004;23;20881;-89
2022/11/04 09:59:22;;;;;;;13.37;8.50;;;11.90;99.90;;;;;;6163507;23;20441;-88
2022/11/04 10:02:01;;;;;;;13.93;9.13;;;11.90;99.90;;;;;;6174769;23;20381;-91
2022/11/04 10:04:40;;;;;;;11.90;8.30;;;11.90;99.90;;;;;;6174325;23;20395;-90
2022/11/04 10:07:20;;;;;;;13.43;8.80;;;11.80;99.90;;;;;;6163568;23;20407;-90
2022/11/04 10:09:57;;;;;;;11.03;8.63;;;11.80;99.90;;;;;;6162930;23;20392;-89
2022/11/04 10:12:41;;;;;;;8.90;7.57;;;11.80;99.90;;;;;;6163457;23;20415;-89
2022/11/04 10:15:34;;;;;;;10.63;8.73;;;12.10;99.90;;;;;;6161482;23;20503;-89
2022/11/04 10:18:12;;;;;;;13.30;8.40;;;12.10;99.90;;;;;;6162546;23;20439;-90
2022/11/04 10:20:50;;;;;;;11.07;9.53;;;12.60;99.90;;;;;;6161166;23;20407;-89
2022/11/04 10:23:22;;;;;;;10.73;8.40;;;11.60;99.90;;;;;;6162061;23;20444;-89
2022/11/04 10:25:57;;;;;;;8.77;7.87;;;11.60;99.90;;;;;;6162864;23;20392;-89
2022/11/04 10:28:38;;;;;;;11.40;8.43;;;11.60;99.90;;;;;;6164566;23;20427;-90
2022/11/04 10:31:08;;;;;;;10.30;8.10;;;11.60;99.90;;;;;;6163684;23;20776;-90
2022/11/04 10:33:39;;;;;;;10.80;8.13;;;11.60;99.90;;;;;;6163115;23;20479;-90
2022/11/04 10:36:07;;;;;;;11.20;9.10;;;11.10;99.90;;;;;;6163201;23;20401;-90
2022/11/04 10:38:39;;;;;;;12.03;9.77;;;11.40;99.90;;;;;;6162958;23;20498;-90
2022/11/04 10:41:20;;;;;;;10.17;9.07;;;11.60;99.90;;;;;;6165218;23;20392;-90
2022/11/04 10:43:48;;;;;;;16.37;10.50;;;11.50;99.90;;;;;;6164873;23;20395;-90
2022/11/04 10:46:41;;;;;;;12.23;9.33;;;11.60;99.90;;;;;;6164803;23;20415;-89
2022/11/04 10:49:40;;;;;;;11.90;9.20;;;11.10;99.90;;;;;;6176466;23;20428;-90
2022/11/04 10:52:09;;;;;;;11.00;8.67;;;11.30;99.90;;;;;;6165308;23;20431;-90
2022/11/04 10:54:40;;;;;;;15.30;12.07;;;11.30;99.90;;;;;;6173951;23;20434;-89
2022/11/04 10:57:07;;;;;;;11.57;9.37;;;11.20;99.90;;;;;;6173902;23;20550;-89
2022/11/04 10:59:46;;;;;;;11.77;9.90;;;11.30;99.90;;;;;;6173461;23;20408;-89
2022/11/04 11:02:17;;;;;;;16.00;10.10;;;;;;;;;;6166000;23;20849;-90
2022/11/04 11:04:46;;;;;;;12.57;11.03;;;11.20;99.90;;;;;;6165703;23;20467;-90
2022/11/04 11:07:18;;;;;;;12.40;9.77;;;11.30;99.90;;;;;;6165239;23;20479;-89
2022/11/04 11:09:52;;;;;;;13.40;11.77;;;11.20;99.90;;;;;;6165839;23;20399;-90
2022/11/04 11:12:25;;;;;;;12.47;11.03;;;11.20;99.90;;;;;;6176575;23;20464;-90
2022/11/04 11:14:52;;;;;;;14.10;11.73;;;;;;;;;;6177982;23;20428;-90
2022/11/04 11:17:31;;;;;;;13.20;10.90;;;11.40;99.90;;;;;;6173714;23;20395;-90
2022/11/04 11:19:59;;;;;;;15.40;10.60;;;10.60;99.90;;;;;;6184069;23;20456;-89
2022/11/04 11:22:37;;;;;;;15.00;11.40;;;11.50;99.90;;;;;;6185198;23;20488;-89
2022/11/04 11:25:25;;;;;;;10.80;9.70;;;11.00;99.90;;;;;;6183711;23;20406;-90
2022/11/04 11:27:53;;;;;;;11.07;9.97;;;11.40;99.90;;;;;;6175128;23;20428;-89
2022/11/04 11:30:23;;;;;;;11.53;10.20;;;11.40;99.90;;;;;;6166380;23;20407;-90
2022/11/04 11:32:56;;;;;;;12.00;10.70;;;11.30;99.90;;;;;;6165450;23;20422;-90
2022/11/04 11:35:29;;;;;;;12.33;10.20;;;11.30;99.90;;;;;;6173970;23;20416;-90
2022/11/04 11:37:57;;;;;;;11.87;10.40;;;11.30;99.90;;;;;;6174747;23;20462;-90
2022/11/04 11:40:25;;;;;;;11.20;9.37;;;;;;;;;;6168412;23;20411;-89
2022/11/04 11:42:53;;;;;;;12.70;10.23;;;;;;;;;;6163976;23;20408;-90
2022/11/04 11:45:22;;;;;;;12.77;10.53;;;11.20;99.90;;;;;;6164041;23;20412;-89
2022/11/04 11:47:53;;;;;;;12.07;10.80;;;11.20;99.90;;;;;;6163275;23;20808;-89
2022/11/04 11:50:29;;;;;;;13.97;11.43;;;11.30;99.90;;;;;;6163336;23;20807;-89
2022/11/04 11:53:13;;;;;;;15.03;10.60;;;11.10;99.90;;;;;;6164281;23;20562;-89
2022/11/04 11:55:46;;;;;;;17.47;12.53;;;11.20;99.90;;;;;;6173195;23;20392;-89
2022/11/04 11:58:22;;;;;;;12.83;10.40;;;11.20;99.90;;;;;;6183048;23;20431;-89
2022/11/04 12:00:52;;;;;;;13.03;11.53;;;11.20;99.90;;;;;;6176017;23;20878;-90
2022/11/04 12:03:29;;;;;;;12.77;10.17;;;11.10;99.90;;;;;;6169819;23;20381;-89
2022/11/04 12:06:16;;;;;;;10.60;9.53;;;11.10;99.90;;;;;;6169301;23;20761;-90
2022/11/04 12:09:09;;;;;;;14.90;10.90;;;11.00;99.90;;;;;;6165780;23;20988;-90
2022/11/04 12:11:45;;;;;;;13.73;10.30;;;11.00;99.90;;;;;;6176510;23;20504;-90
2022/11/04 12:14:18;;;;;;;10.83;9.53;;;11.00;99.90;;;;;;6184006;23;20462;-89
2022/11/04 12:16:53;;;;;;;12.60;9.23;;;11.00;99.90;;;;;;6184561;23;20352;-89
2022/11/04 12:19:40;;;;;;;12.03;10.10;;;10.90;99.90;;;;;;6184926;23;20400;-89
2022/11/04 12:22:17;;;;;;;12.97;11.00;;;10.90;99.90;;;;;;6173925;23;20478;-90
2022/11/04 12:24:54;;;;;;;13.67;11.37;;;10.90;99.90;;;;;;6173445;23;20439;-90
2022/11/04 12:27:29;;;;;;;13.87;11.10;;;10.80;99.90;;;;;;6169106;23;20523;-90
2022/11/04 12:30:06;;;;;;;14.13;12.20;;;10.80;99.90;;;;;;6166960;23;20384;-90
2022/11/04 12:32:48;;;;;;;15.00;12.87;;;10.80;99.90;;;;;;6166825;23;20396;-89
2022/11/04 12:35:31;;;;;;;21.03;14.73;;;10.80;99.90;;;;;;6175331;23;20442;-90
2022/11/04 12:38:15;;;;;;;16.77;12.67;;;10.80;99.90;;;;;;6165315;23;20461;-90
2022/11/04 12:40:45;;;;;;;14.03;12.50;;;10.80;99.90;;;;;;6165501;23;20396;-90
2022/11/04 12:43:24;;;;;;;15.67;12.20;;;10.80;99.90;;;;;;6165115;23;20403;-90
2022/11/04 12:46:01;;;;;;;15.67;13.10;;;10.90;99.90;;;;;;6165350;23;20399;-91
2022/11/04 12:48:48;;;;;;;13.43;10.97;;;11.00;99.90;;;;;;6165559;23;20399;-90
2022/11/04 12:51:22;;;;;;;13.87;11.20;;;10.90;99.90;;;;;;6162710;23;20398;-90
2022/11/04 12:54:05;;;;;;;12.70;11.40;;;10.90;99.90;;;;;;6161899;23;20436;-91
2022/11/04 12:56:37;;;;;;;14.00;11.87;;;11.20;99.90;;;;;;6161415;23;20367;-90
2022/11/04 12:59:46;;;;;;;12.63;10.77;;;11.20;99.90;;;;;;6161545;23;20440;-90
2022/11/04 13:02:19;;;;;;;13.37;10.40;;;11.00;99.90;;;;;;6109965;23;20412;-90
2022/11/04 13:04:52;;;;;;;10.60;9.50;;;11.20;99.90;;;;;;6163495;23;20384;-90
2022/11/04 13:07:24;;;;;;;12.20;9.80;;;11.00;99.90;;;;;;6180455;23;20419;-90
2022/11/04 13:09:57;;;;;;;11.33;10.23;;;10.90;99.90;;;;;;6174767;23;20370;-90
2022/11/04 13:12:27;;;;;;;14.93;10.33;;;10.90;99.90;;;;;;6165407;23;20475;-90
2022/11/04 13:14:58;;;;;;;12.83;11.33;;;10.90;99.90;;;;;;6163728;23;20523;-90
2022/11/04 13:17:33;;;;;;;12.10;9.83;;;10.90;99.90;;;;;;6163424;23;20438;-90
2022/11/04 13:20:05;;;;;;;16.03;12.33;;;10.90;99.90;;;;;;6163311;23;20408;-90
2022/11/04 13:22:36;;;;;;;12.50;11.30;;;10.90;99.90;;;;;;6163617;23;20418;-88
2022/11/04 13:25:12;;;;;;;12.47;9.93;;;10.90;99.90;;;;;;6164014;23;20420;-87
2022/11/04 13:27:43;;;;;;;11.30;10.10;;;10.90;99.90;;;;;;6168456;23;20429;-88
2022/11/04 13:30:21;;;;;;;12.03;10.37;;;11.00;99.90;;;;;;6183218;23;20391;-88
2022/11/04 13:32:53;;;;;;;12.80;10.40;;;10.90;99.90;;;;;;6178967;23;20393;-88
2022/11/04 13:35:30;;;;;;;12.00;10.20;;;10.90;99.90;;;;;;6167032;23;20409;-88
2022/11/04 13:38:04;;;;;;;16.20;12.07;;;10.90;99.90;;;;;;6165819;23;20524;-88
2022/11/04 13:40:42;;;;;;;15.27;12.07;;;11.20;99.90;;;;;;6167570;23;20388;-89
2022/11/04 13:43:37;;;;;;;12.03;10.40;;;11.30;99.90;;;;;;6165798;23;20773;-88
2022/11/04 13:46:17;;;;;;;12.57;10.87;;;10.90;99.90;;;;;;6163951;23;20391;-89